Forside
METAR-TAF:

METAR-TAF

Lufthavne :

Merrill Municipal Airport

Merrill, Wisconsin, USA

Breddekreds: 45-11N, længdekreds: 089-42W, højde: 401 m

Aktuelle vejr

Denne rapport blev lavet for 21 minutter siden, kl. 17:35 UTC
Vind 7 kt fra vest
Temperatur 4°C
Fugtighed 48%
Tryk 1023 hPa
Sigt: 16.1 km
skyfri

METAR: KRRL 021735Z AUTO 26007KT 10SM CLR 04/M06 A3021 RMK AO2 T00361060 TSNO

Tid: 11:56 (17:56 UTC)


TAF: fraværende

Vejrobservationer og prognoser fra mere end 4000 lufthavne (METAR og TAF).

De gule og røde prikker repræsenterer de meteorologiske stationer.

Flyt musen over at se navnet på stationen.

Så klik over at se vejr observationer og prognoser.

At skifte det kort: Klik på de grønne knapper med et sort kors for at zoome ind; på den grønne knap med en bindestreg for at zoome ud; eller på de grønne pile for tilstødende kort.


METAR-TAF: